Time;durP1;ratioP1;P1;durP2;ratioP2;P2;SDS_P1;SDS_P2;PMS_P1;PMS_P2;Temp;Humidity;BMP_temperature;BMP_pressure;BME280_temperature;BME280_humidity;BME280_pressure;Samples;Min_cycle;Max_cycle;Signal;HPM_P1;HPM_P2
2023/05/17 00:02:24;;;;;;;19.27;5.38;;;9.60;99.90;;;;;;4928297;28;20042;-82
2023/05/17 00:04:50;;;;;;;20.63;5.93;;;9.70;99.90;;;;;;4976339;28;20502;-82
2023/05/17 00:07:18;;;;;;;20.17;5.93;;;9.40;99.90;;;;;;4976133;28;20532;-82
2023/05/17 00:09:44;;;;;;;23.77;6.32;;;9.70;99.90;;;;;;4976015;28;20121;-82
2023/05/17 00:12:10;;;;;;;18.75;5.80;;;9.60;99.90;;;;;;4943830;28;20047;-82
2023/05/17 00:14:36;;;;;;;24.13;5.47;;;9.70;99.90;;;;;;4928307;28;20046;-82
2023/05/17 00:17:01;;;;;;;17.27;5.00;;;9.70;99.90;;;;;;4943812;28;20553;-82
2023/05/17 00:19:27;;;;;;;20.63;5.05;;;9.70;99.90;;;;;;4927940;28;20505;-83
2023/05/17 00:21:53;;;;;;;17.48;5.00;;;9.60;99.90;;;;;;4927844;28;20140;-82
2023/05/17 00:24:19;;;;;;;19.25;5.05;;;9.60;99.90;;;;;;4943522;28;20056;-83
2023/05/17 00:26:44;;;;;;;17.77;4.88;;;9.60;99.90;;;;;;4943858;28;20053;-82
2023/05/17 00:29:13;;;;;;;17.20;5.18;;;9.60;99.90;;;;;;4943366;28;20062;-83
2023/05/17 00:31:39;;;;;;;17.05;4.30;;;9.50;99.90;;;;;;4943334;28;20089;-82
2023/05/17 00:34:05;;;;;;;18.77;4.85;;;9.40;99.90;;;;;;4927875;28;20039;-83
2023/05/17 00:36:31;;;;;;;18.33;4.72;;;9.40;99.90;;;;;;4943368;28;20422;-83
2023/05/17 00:38:57;;;;;;;17.70;4.55;;;9.40;99.90;;;;;;4927197;28;20483;-83
2023/05/17 00:41:22;;;;;;;19.70;4.70;;;9.30;99.90;;;;;;4943330;28;20042;-82
2023/05/17 00:43:48;;;;;;;17.35;4.57;;;9.30;99.90;;;;;;4975364;28;20046;-82
2023/05/17 00:46:15;;;;;;;16.45;4.20;;;9.20;99.90;;;;;;4943318;28;20113;-82
2023/05/17 00:48:41;;;;;;;20.52;4.25;;;9.10;99.90;;;;;;4912172;28;20089;-82
2023/05/17 00:51:08;;;;;;;18.60;4.28;;;9.10;99.90;;;;;;4943254;28;20039;-82
2023/05/17 00:53:35;;;;;;;16.77;4.20;;;9.00;99.90;;;;;;4927272;28;20561;-83
2023/05/17 00:56:02;;;;;;;16.23;4.40;;;9.00;99.90;;;;;;4975480;28;20577;-83
2023/05/17 00:58:29;;;;;;;18.85;4.25;;;9.00;99.90;;;;;;4927642;28;20486;-83
2023/05/17 01:00:55;;;;;;;19.17;4.22;;;8.90;99.90;;;;;;4942810;28;20105;-83
2023/05/17 01:03:21;;;;;;;18.20;4.40;;;8.90;99.90;;;;;;4975005;28;20043;-83
2023/05/17 01:05:48;;;;;;;19.00;4.20;;;8.90;99.90;;;;;;4943144;28;20051;-83
2023/05/17 01:08:15;;;;;;;17.75;4.20;;;8.80;99.90;;;;;;4942623;28;20057;-83
2023/05/17 01:11:15;;;;;;;20.20;4.43;;;8.70;99.90;;;;;;4975168;28;20050;-83
2023/05/17 01:14:05;;;;;;;18.92;4.07;;;8.70;99.90;;;;;;4931786;28;20094;-83
2023/05/17 01:16:57;;;;;;;20.60;3.90;;;8.60;99.90;;;;;;4942709;28;20042;-83
2023/05/17 01:19:53;;;;;;;17.27;3.83;;;8.70;99.90;;;;;;4974978;28;20061;-83
2023/05/17 01:22:47;;;;;;;21.42;3.67;;;8.70;99.90;;;;;;4957923;28;20086;-83
2023/05/17 01:25:52;;;;;;;16.08;4.03;;;8.60;99.90;;;;;;4942792;28;20039;-83
2023/05/17 01:28:20;;;;;;;16.40;4.05;;;8.60;99.90;;;;;;4942309;28;20124;-83
2023/05/17 01:30:48;;;;;;;16.70;3.90;;;8.50;99.90;;;;;;4974378;28;20043;-83
2023/05/17 01:33:15;;;;;;;16.75;3.95;;;8.50;99.90;;;;;;4974681;28;20561;-83
2023/05/17 01:35:41;;;;;;;16.73;3.90;;;8.40;99.90;;;;;;4958470;28;20181;-83
2023/05/17 01:38:07;;;;;;;17.02;4.00;;;8.40;99.90;;;;;;4974305;28;20125;-83
2023/05/17 01:40:36;;;;;;;15.35;3.80;;;8.40;99.90;;;;;;4910765;28;20038;-83
2023/05/17 01:43:22;;;;;;;18.65;3.92;;;8.30;99.90;;;;;;4974230;28;20050;-82
2023/05/17 01:46:13;;;;;;;15.48;3.45;;;8.30;99.90;;;;;;4942358;28;20494;-83
2023/05/17 01:48:47;;;;;;;14.77;3.60;;;8.40;99.90;;;;;;4974439;28;20494;-83
2023/05/17 01:51:18;;;;;;;17.00;3.45;;;8.40;99.90;;;;;;4941349;28;20498;-83
2023/05/17 01:53:55;;;;;;;20.03;4.17;;;8.30;99.90;;;;;;4942195;28;20174;-82
2023/05/17 01:56:27;;;;;;;16.42;3.85;;;8.30;99.90;;;;;;4941965;28;20046;-82
2023/05/17 01:58:56;;;;;;;18.60;3.60;;;8.30;99.90;;;;;;4974065;28;20050;-83
2023/05/17 02:01:27;;;;;;;17.63;3.72;;;8.20;99.90;;;;;;4941880;28;20043;-83
2023/05/17 02:03:53;;;;;;;20.87;3.97;;;8.20;99.90;;;;;;4974234;28;20043;-83
2023/05/17 02:06:19;;;;;;;19.20;4.22;;;8.40;99.90;;;;;;4941987;28;20289;-83
2023/05/17 02:08:45;;;;;;;17.30;3.80;;;8.20;99.90;;;;;;4941758;28;20049;-83
2023/05/17 02:11:10;;;;;;;21.17;3.72;;;8.20;99.90;;;;;;4925709;28;20510;-83
2023/05/17 02:13:36;;;;;;;22.67;4.47;;;8.20;99.90;;;;;;4941637;28;20081;-83
2023/05/17 02:16:03;;;;;;;23.75;4.28;;;8.20;99.90;;;;;;4941868;28;20042;-84
2023/05/17 02:18:29;;;;;;;19.05;4.10;;;8.20;99.90;;;;;;4942017;28;20474;-83
2023/05/17 02:20:55;;;;;;;20.17;4.20;;;8.10;99.90;;;;;;4941687;28;20179;-83
2023/05/17 02:23:21;;;;;;;19.00;3.80;;;8.10;99.90;;;;;;4941447;28;20072;-82
2023/05/17 02:25:47;;;;;;;15.63;3.63;;;8.10;99.90;;;;;;4941481;28;20498;-83
2023/05/17 02:28:12;;;;;;;19.23;4.25;;;8.10;99.90;;;;;;4973187;28;20490;-83
2023/05/17 02:30:39;;;;;;;15.45;3.80;;;8.00;99.90;;;;;;4925406;28;20098;-83
2023/05/17 02:33:05;;;;;;;17.65;3.63;;;8.00;99.90;;;;;;4941899;28;20490;-83
2023/05/17 02:35:31;;;;;;;20.58;3.95;;;8.00;99.90;;;;;;4925695;28;20038;-83
2023/05/17 02:37:57;;;;;;;15.40;3.72;;;8.00;99.90;;;;;;4941339;28;20043;-84
2023/05/17 02:40:23;;;;;;;18.02;3.97;;;8.00;99.90;;;;;;4925544;28;20046;-83
2023/05/17 02:42:49;;;;;;;21.42;3.80;;;7.90;99.90;;;;;;4941189;28;20047;-83
2023/05/17 02:45:15;;;;;;;15.68;3.83;;;7.90;99.90;;;;;;4973166;28;20042;-83
2023/05/17 02:47:41;;;;;;;22.05;3.75;;;7.90;99.90;;;;;;4957155;28;20137;-83
2023/05/17 02:50:07;;;;;;;21.58;4.25;;;7.90;99.90;;;;;;4925660;28;20554;-83
2023/05/17 02:52:33;;;;;;;15.57;3.90;;;7.70;99.90;;;;;;4925654;28;20030;-83
2023/05/17 02:54:59;;;;;;;16.90;3.50;;;7.80;99.90;;;;;;4925312;28;20514;-83
2023/05/17 02:57:24;;;;;;;17.00;3.80;;;7.50;99.90;;;;;;4956924;28;20043;-82
2023/05/17 02:59:50;;;;;;;19.45;4.15;;;7.80;99.90;;;;;;4941048;28;20119;-83
2023/05/17 03:02:16;;;;;;;15.63;3.35;;;7.80;99.90;;;;;;4941097;28;20078;-83
2023/05/17 03:04:42;;;;;;;19.15;3.60;;;7.80;99.90;;;;;;4940986;28;20550;-83
2023/05/17 03:07:11;;;;;;;17.92;3.80;;;7.70;99.90;;;;;;4909731;28;20038;-83
2023/05/17 03:09:37;;;;;;;17.48;3.90;;;7.70;99.90;;;;;;4925617;28;20038;-84
2023/05/17 03:12:03;;;;;;;17.15;3.75;;;7.70;99.90;;;;;;4940880;28;20383;-83
2023/05/17 03:14:29;;;;;;;22.10;3.90;;;7.70;99.90;;;;;;4940874;28;20046;-83
2023/05/17 03:16:55;;;;;;;18.48;3.90;;;7.70;99.90;;;;;;4925535;28;20458;-83
2023/05/17 03:19:21;;;;;;;14.40;3.28;;;7.60;99.90;;;;;;4925477;28;20376;-82
2023/05/17 03:21:47;;;;;;;14.43;3.28;;;7.50;99.90;;;;;;4940835;28;20050;-82
2023/05/17 03:24:13;;;;;;;19.42;3.83;;;7.60;99.90;;;;;;4940760;28;20096;-82
2023/05/17 03:26:42;;;;;;;13.38;3.25;;;7.50;99.90;;;;;;4940855;28;20130;-82
2023/05/17 03:29:07;;;;;;;19.65;3.60;;;7.50;99.90;;;;;;4972945;28;20069;-82
2023/05/17 03:31:33;;;;;;;19.00;3.60;;;7.40;99.90;;;;;;4940653;28;20129;-82
2023/05/17 03:33:59;;;;;;;15.98;3.90;;;7.40;99.90;;;;;;4940412;28;20050;-82
2023/05/17 03:36:25;;;;;;;20.52;3.78;;;7.30;99.90;;;;;;4940773;28;20490;-83
2023/05/17 03:38:50;;;;;;;21.55;4.05;;;7.40;99.90;;;;;;4956615;28;20521;-83
2023/05/17 03:41:16;;;;;;;16.35;3.47;;;7.40;99.90;;;;;;4909170;28;20039;-83
2023/05/17 03:43:42;;;;;;;18.75;3.88;;;7.40;99.90;;;;;;4956488;28;20135;-83
2023/05/17 03:46:08;;;;;;;20.02;3.80;;;7.40;99.90;;;;;;4924848;28;20468;-83
2023/05/17 03:48:36;;;;;;;19.65;3.65;;;7.40;99.90;;;;;;4924945;28;20057;-82
2023/05/17 03:51:02;;;;;;;18.35;3.83;;;7.40;99.90;;;;;;4956923;28;20055;-82
2023/05/17 03:53:28;;;;;;;16.58;3.55;;;7.80;99.90;;;;;;4925016;28;20042;-82
2023/05/17 03:55:54;;;;;;;18.67;4.07;;;7.50;99.90;;;;;;4924748;28;20500;-83
2023/05/17 03:58:20;;;;;;;18.48;3.60;;;7.50;99.90;;;;;;4924833;28;20151;-83
2023/05/17 04:00:45;;;;;;;20.67;3.95;;;7.50;99.90;;;;;;4909277;28;20462;-83
2023/05/17 04:03:11;;;;;;;20.05;3.80;;;7.60;99.90;;;;;;4956318;28;20130;-83
2023/05/17 04:05:40;;;;;;;18.60;3.65;;;7.60;99.90;;;;;;4925130;28;20047;-83
2023/05/17 04:08:05;;;;;;;17.55;3.55;;;7.70;99.90;;;;;;4956478;28;20043;-82
2023/05/17 04:10:31;;;;;;;12.13;3.38;;;7.70;99.90;;;;;;4924681;28;20062;-83
2023/05/17 04:12:57;;;;;;;17.52;3.90;;;7.70;99.90;;;;;;4967047;28;20042;-83
2023/05/17 04:15:23;;;;;;;19.67;4.15;;;7.80;99.90;;;;;;4983032;28;20042;-83
2023/05/17 04:17:48;;;;;;;13.80;3.10;;;7.80;99.90;;;;;;4967749;28;20081;-83
2023/05/17 04:20:14;;;;;;;18.02;3.65;;;7.90;99.90;;;;;;4967654;28;20027;-83
2023/05/17 04:22:40;;;;;;;19.42;4.10;;;7.90;99.90;;;;;;4964876;28;20046;-83
2023/05/17 04:25:07;;;;;;;19.55;4.10;;;8.00;99.90;;;;;;4945441;28;20501;-82
2023/05/17 04:27:32;;;;;;;16.83;3.70;;;8.00;99.90;;;;;;4944813;28;20046;-83
2023/05/17 04:29:58;;;;;;;18.80;3.75;;;8.00;99.90;;;;;;4928003;28;20186;-82
2023/05/17 04:32:24;;;;;;;17.50;3.50;;;8.00;99.90;;;;;;4927839;28;20043;-82
2023/05/17 04:34:50;;;;;;;17.58;3.80;;;8.10;99.90;;;;;;4960092;28;20038;-82
2023/05/17 04:37:16;;;;;;;17.42;3.35;;;8.10;99.90;;;;;;4940423;29;20046;-83
2023/05/17 04:39:42;;;;;;;17.50;3.72;;;8.20;99.90;;;;;;4924408;29;20039;-82
2023/05/17 04:42:08;;;;;;;15.70;3.28;;;8.20;99.90;;;;;;4924392;29;20043;-82
2023/05/17 04:44:34;;;;;;;17.10;3.40;;;8.20;99.90;;;;;;4924609;29;20081;-82
2023/05/17 04:47:00;;;;;;;17.73;3.42;;;8.30;99.90;;;;;;4924588;29;20468;-82
2023/05/17 04:49:25;;;;;;;16.88;3.10;;;8.30;99.90;;;;;;4924129;29;20054;-82
2023/05/17 04:51:51;;;;;;;16.58;3.33;;;8.30;99.90;;;;;;4924096;29;20062;-82
2023/05/17 04:54:17;;;;;;;18.10;3.30;;;8.40;99.90;;;;;;4955870;29;20092;-82
2023/05/17 04:56:43;;;;;;;14.23;3.35;;;8.40;99.90;;;;;;4956060;29;20098;-82
2023/05/17 04:59:08;;;;;;;18.75;3.50;;;8.50;99.90;;;;;;4908731;29;20043;-82
2023/05/17 05:01:34;;;;;;;18.08;3.20;;;8.50;99.90;;;;;;4955229;29;20054;-83
2023/05/17 05:04:05;;;;;;;14.15;2.92;;;8.50;99.90;;;;;;4924015;29;20079;-82
2023/05/17 05:06:34;;;;;;;16.88;3.15;;;8.60;99.90;;;;;;4927090;28;20045;-82
2023/05/17 05:09:00;;;;;;;13.38;3.00;;;8.50;99.90;;;;;;4958868;28;20038;-82
2023/05/17 05:11:26;;;;;;;16.35;3.20;;;8.50;99.90;;;;;;4958901;28;20043;-82
2023/05/17 05:13:52;;;;;;;17.73;3.00;;;8.70;99.90;;;;;;4958972;28;20068;-82
2023/05/17 05:16:18;;;;;;;16.35;2.90;;;8.90;99.90;;;;;;4958905;28;20045;-82
2023/05/17 05:18:43;;;;;;;12.05;2.63;;;9.00;99.90;;;;;;4927018;28;20039;-82
2023/05/17 05:21:09;;;;;;;13.70;2.78;;;9.00;99.90;;;;;;4958922;28;20430;-82
2023/05/17 05:23:35;;;;;;;15.55;2.53;;;9.00;99.90;;;;;;4926986;28;20101;-83
2023/05/17 05:26:01;;;;;;;15.20;2.85;;;9.00;99.90;;;;;;4942557;28;20043;-83
2023/05/17 05:28:26;;;;;;;13.35;2.53;;;9.00;99.90;;;;;;4942480;28;20054;-82
2023/05/17 05:30:59;;;;;;;11.35;2.10;;;9.00;99.90;;;;;;4942598;28;20047;-83
2023/05/17 05:33:25;;;;;;;11.30;2.33;;;9.00;99.90;;;;;;4974781;28;20560;-82
2023/05/17 05:35:51;;;;;;;10.75;2.05;;;9.00;99.90;;;;;;4926587;28;20035;-81
2023/05/17 05:38:19;;;;;;;10.65;2.10;;;9.00;99.90;;;;;;4958348;28;20042;-82
2023/05/17 05:40:47;;;;;;;12.23;2.40;;;9.00;99.90;;;;;;4942949;28;20081;-84
2023/05/17 05:43:13;;;;;;;11.15;2.35;;;9.00;99.90;;;;;;4958178;28;20047;-82
2023/05/17 05:45:44;;;;;;;12.15;2.28;;;9.10;99.90;;;;;;4942513;28;20566;-82
2023/05/17 05:48:11;;;;;;;10.05;2.33;;;9.20;99.90;;;;;;4958109;28;20049;-83
2023/05/17 05:50:37;;;;;;;12.93;2.30;;;9.30;99.90;;;;;;4958046;28;20113;-82
2023/05/17 05:53:03;;;;;;;11.23;2.10;;;9.40;99.90;;;;;;4958197;28;20038;-83
2023/05/17 05:55:29;;;;;;;13.68;2.42;;;9.60;99.90;;;;;;4958045;28;20491;-82
2023/05/17 05:57:54;;;;;;;9.02;1.70;;;10.00;99.90;;;;;;4958108;28;20490;-82
2023/05/17 06:00:20;;;;;;;11.10;2.15;;;10.10;99.90;;;;;;4957873;28;20129;-82
2023/05/17 06:02:46;;;;;;;11.18;1.98;;;10.50;99.90;;;;;;4941991;28;20498;-82
2023/05/17 06:05:12;;;;;;;12.82;2.00;;;10.50;99.90;;;;;;4957975;28;20042;-81
2023/05/17 06:07:38;;;;;;;11.73;2.00;;;10.60;99.90;;;;;;4957907;28;20490;-82
2023/05/17 06:10:04;;;;;;;13.80;2.00;;;10.90;99.90;;;;;;4957711;28;20039;-81
2023/05/17 06:12:30;;;;;;;12.60;1.98;;;11.30;99.90;;;;;;4957680;28;20046;-81
2023/05/17 06:14:55;;;;;;;10.75;2.00;;;11.40;99.90;;;;;;4957597;28;20038;-81
2023/05/17 06:17:21;;;;;;;9.15;1.90;;;11.90;99.90;;;;;;4957502;28;20125;-81
2023/05/17 06:19:48;;;;;;;9.05;1.90;;;12.10;99.90;;;;;;4926010;28;20043;-81
2023/05/17 06:22:14;;;;;;;13.95;2.10;;;11.90;99.90;;;;;;4957449;28;20126;-81
2023/05/17 06:24:40;;;;;;;11.27;2.13;;;11.70;99.90;;;;;;4957420;28;20089;-81
2023/05/17 06:27:06;;;;;;;11.02;1.73;;;11.70;99.90;;;;;;4957352;28;20046;-79
2023/05/17 06:29:32;;;;;;;9.85;2.00;;;11.60;99.90;;;;;;4941283;28;20057;-80
2023/05/17 06:31:58;;;;;;;10.15;1.88;;;12.10;99.90;;;;;;4925629;28;20553;-80
2023/05/17 06:34:25;;;;;;;11.00;2.08;;;12.30;97.00;;;;;;4957303;28;20104;-81
2023/05/17 06:36:51;;;;;;;9.60;1.67;;;12.40;96.80;;;;;;4953527;28;20054;-81
2023/05/17 06:39:17;;;;;;;9.98;1.92;;;12.20;95.90;;;;;;4922456;29;20087;-81
2023/05/17 06:41:43;;;;;;;9.35;1.77;;;11.90;96.20;;;;;;4906446;29;20075;-81
2023/05/17 06:44:09;;;;;;;11.23;2.08;;;11.70;96.80;;;;;;4954590;29;20134;-80
2023/05/17 06:46:34;;;;;;;11.45;2.03;;;11.50;97.90;;;;;;4954140;29;20600;-81
2023/05/17 06:49:00;;;;;;;10.82;2.38;;;11.30;98.50;;;;;;4922171;29;20047;-81
2023/05/17 06:51:26;;;;;;;11.68;2.53;;;10.90;98.60;;;;;;4906333;29;20097;-81
2023/05/17 06:53:52;;;;;;;11.20;2.03;;;10.70;99.70;;;;;;4922620;29;20047;-80
2023/05/17 06:56:17;;;;;;;13.93;2.60;;;10.50;99.90;;;;;;4922105;29;20039;-80
2023/05/17 06:58:45;;;;;;;10.05;2.20;;;10.50;99.90;;;;;;4922380;29;20031;-80
2023/05/17 07:01:12;;;;;;;10.38;2.38;;;10.20;99.80;;;;;;4922365;29;20043;-80
2023/05/17 07:03:38;;;;;;;13.52;2.40;;;10.20;99.90;;;;;;4922405;29;20487;-80
2023/05/17 07:06:04;;;;;;;9.90;2.03;;;10.70;99.90;;;;;;4953943;29;20043;-80
2023/05/17 07:08:30;;;;;;;9.00;2.10;;;11.10;99.90;;;;;;4924770;28;20113;-80
2023/05/17 07:10:55;;;;;;;13.00;2.78;;;11.70;98.80;;;;;;4973069;28;20513;-80
2023/05/17 07:13:21;;;;;;;11.43;2.35;;;11.80;95.30;;;;;;4925363;28;20035;-79
2023/05/17 07:15:47;;;;;;;10.25;2.20;;;12.00;95.90;;;;;;4925507;28;20035;-80
2023/05/17 07:18:13;;;;;;;10.75;2.13;;;12.30;95.00;;;;;;4940850;28;20065;-81
2023/05/17 07:20:39;;;;;;;11.43;2.45;;;12.30;95.30;;;;;;4925286;28;20035;-81
2023/05/17 07:23:04;;;;;;;12.57;2.38;;;12.30;95.50;;;;;;4941077;28;20046;-81
2023/05/17 07:25:30;;;;;;;13.02;2.40;;;12.10;95.00;;;;;;4940904;28;20049;-80
2023/05/17 07:27:56;;;;;;;12.38;2.60;;;12.00;95.90;;;;;;4940983;28;20082;-81
2023/05/17 07:30:22;;;;;;;12.70;2.50;;;11.80;94.80;;;;;;4924860;28;20097;-81
2023/05/17 07:32:48;;;;;;;12.10;2.38;;;11.70;96.10;;;;;;4940795;28;20449;-81
2023/05/17 07:35:14;;;;;;;12.25;2.75;;;11.60;96.50;;;;;;4941185;28;20043;-81
2023/05/17 07:37:40;;;;;;;12.45;2.55;;;11.40;96.50;;;;;;4972669;28;20410;-81
2023/05/17 07:40:07;;;;;;;10.43;2.38;;;11.30;96.10;;;;;;4956977;28;20402;-81
2023/05/17 07:42:33;;;;;;;13.82;2.45;;;11.50;96.90;;;;;;4940925;28;20490;-81
2023/05/17 07:44:59;;;;;;;12.70;2.38;;;11.30;97.60;;;;;;4909126;28;20046;-81
2023/05/17 07:47:25;;;;;;;16.63;2.95;;;11.30;97.70;;;;;;4941001;28;20443;-81
2023/05/17 07:49:51;;;;;;;14.32;3.10;;;11.30;98.30;;;;;;4928579;28;20094;-81
2023/05/17 07:52:17;;;;;;;14.05;3.00;;;11.20;97.50;;;;;;4944080;28;20039;-82
2023/05/17 07:54:42;;;;;;;16.25;3.10;;;11.10;99.90;;;;;;4928369;28;20043;-82
2023/05/17 07:57:08;;;;;;;12.98;2.63;;;11.10;98.80;;;;;;4928350;28;20099;-82
2023/05/17 07:59:34;;;;;;;14.32;2.80;;;11.00;99.10;;;;;;4944313;28;20069;-82
2023/05/17 08:02:00;;;;;;;18.73;3.03;;;10.90;99.70;;;;;;4944122;28;20043;-82
2023/05/17 08:04:25;;;;;;;15.48;3.05;;;10.90;99.90;;;;;;4912553;28;20488;-82
2023/05/17 08:06:51;;;;;;;17.08;3.30;;;10.90;99.90;;;;;;4928272;28;20089;-81
2023/05/17 08:09:18;;;;;;;15.20;2.88;;;10.90;99.90;;;;;;4928155;28;20093;-82
2023/05/17 08:11:44;;;;;;;13.57;2.78;;;11.00;99.90;;;;;;4928228;28;20085;-82
2023/05/17 08:14:21;;;;;;;13.52;3.00;;;10.80;99.90;;;;;;4912370;28;20046;-83
2023/05/17 08:16:47;;;;;;;13.35;3.28;;;10.80;99.90;;;;;;4976101;28;20126;-82
2023/05/17 08:19:14;;;;;;;16.70;3.20;;;10.80;99.90;;;;;;4944201;28;20078;-82
2023/05/17 08:21:41;;;;;;;14.55;3.00;;;10.90;99.90;;;;;;4944037;28;20042;-82
2023/05/17 08:24:07;;;;;;;13.57;2.75;;;11.00;99.90;;;;;;4943782;28;20042;-82
2023/05/17 08:26:34;;;;;;;15.77;3.50;;;11.00;99.90;;;;;;4943684;28;20043;-82
2023/05/17 08:29:01;;;;;;;15.10;3.28;;;11.10;99.90;;;;;;4959544;28;20089;-82
2023/05/17 08:31:28;;;;;;;15.02;3.00;;;11.10;99.90;;;;;;4928056;28;20046;-82
2023/05/17 08:33:53;;;;;;;14.35;2.95;;;11.20;99.90;;;;;;4943853;28;20498;-83
2023/05/17 08:36:19;;;;;;;14.45;3.00;;;11.40;99.90;;;;;;4975465;28;20062;-83
2023/05/17 08:38:45;;;;;;;13.77;3.00;;;11.40;99.90;;;;;;4943489;28;20042;-82
2023/05/17 08:41:12;;;;;;;12.88;2.90;;;11.40;98.40;;;;;;4943353;28;20038;-81
2023/05/17 08:43:42;;;;;;;13.18;2.90;;;11.40;97.50;;;;;;4944059;28;20528;-82
2023/05/17 08:46:09;;;;;;;10.25;2.53;;;11.40;97.70;;;;;;4975618;28;20050;-82
2023/05/17 08:48:40;;;;;;;13.35;2.90;;;11.50;97.30;;;;;;4927656;28;20038;-83
2023/05/17 08:51:07;;;;;;;10.02;2.40;;;11.60;98.50;;;;;;4943397;28;20492;-82
2023/05/17 08:53:37;;;;;;;13.02;2.63;;;11.70;95.90;;;;;;4943624;28;20121;-82
2023/05/17 08:56:05;;;;;;;13.52;2.60;;;11.70;95.60;;;;;;4975090;28;20057;-82
2023/05/17 08:58:37;;;;;;;10.93;2.42;;;11.80;94.10;;;;;;4942954;28;20047;-82
2023/05/17 09:01:07;;;;;;;;;;;11.90;93.30;;;;;;4943494;28;20078;-82
2023/05/17 09:03:35;;;;;;;14.70;2.75;;;12.00;93.90;;;;;;4959312;28;19924;-83
2023/05/17 09:06:01;;;;;;;11.82;2.65;;;12.10;94.90;;;;;;4943449;28;20098;-82
2023/05/17 09:08:29;;;;;;;11.77;2.72;;;12.30;96.40;;;;;;4942953;28;20053;-82
2023/05/17 09:10:58;;;;;;;15.15;2.65;;;12.40;96.20;;;;;;4927571;28;20078;-81
2023/05/17 09:13:24;;;;;;;13.02;2.70;;;12.40;95.30;;;;;;4943304;28;20505;-82
2023/05/17 09:15:50;;;;;;;12.45;2.58;;;12.30;95.00;;;;;;4943025;28;20089;-82
2023/05/17 09:18:17;;;;;;;14.25;2.40;;;12.20;93.60;;;;;;4927367;28;20508;-83
2023/05/17 09:20:51;;;;;;;12.63;2.28;;;12.00;92.00;;;;;;4927336;28;20501;-82
2023/05/17 09:23:19;;;;;;;14.00;2.75;;;11.90;93.50;;;;;;4942716;28;20074;-83
2023/05/17 09:25:49;;;;;;;12.73;2.65;;;11.70;93.90;;;;;;4974896;28;20053;-83
2023/05/17 09:28:19;;;;;;;12.68;2.63;;;11.70;94.70;;;;;;4975136;28;20045;-83
2023/05/17 09:30:48;;;;;;;15.05;2.38;;;11.80;95.10;;;;;;4974633;28;20506;-83
2023/05/17 09:33:13;;;;;;;13.73;2.70;;;12.00;95.50;;;;;;4958918;28;20053;-83
2023/05/17 09:35:42;;;;;;;14.50;2.80;;;12.00;96.70;;;;;;4927160;28;20034;-82
2023/05/17 09:38:11;;;;;;;10.88;2.45;;;12.10;95.30;;;;;;4927180;28;20105;-82
2023/05/17 09:40:47;;;;;;;12.57;2.70;;;12.10;93.60;;;;;;4974418;28;20195;-83
2023/05/17 09:43:15;;;;;;;14.43;2.88;;;12.10;95.30;;;;;;4942452;28;20501;-83
2023/05/17 09:45:41;;;;;;;11.38;2.70;;;12.20;95.90;;;;;;4958482;28;20482;-82
2023/05/17 09:48:17;;;;;;;14.07;2.97;;;12.20;95.80;;;;;;4942580;28;20039;-83
2023/05/17 09:50:47;;;;;;;15.30;2.90;;;12.10;96.60;;;;;;4974156;28;20057;-82
2023/05/17 09:53:31;;;;;;;15.85;2.75;;;12.00;96.30;;;;;;4974539;28;20490;-82
2023/05/17 09:56:00;;;;;;;13.55;2.90;;;11.90;96.70;;;;;;4974260;28;20035;-82
2023/05/17 09:58:27;;;;;;;15.60;2.75;;;11.80;97.40;;;;;;4974347;28;20500;-83
2023/05/17 10:01:00;;;;;;;14.73;2.72;;;12.00;98.50;;;;;;4941919;28;20046;-82
2023/05/17 10:03:31;;;;;;;12.75;2.60;;;12.30;98.70;;;;;;4942206;28;20050;-82
2023/05/17 10:05:59;;;;;;;12.98;3.20;;;13.10;97.30;;;;;;4974048;28;20047;-83
2023/05/17 10:08:27;;;;;;;13.68;2.50;;;13.20;96.80;;;;;;4942237;28;20078;-82
2023/05/17 10:10:57;;;;;;;12.98;2.55;;;13.00;93.50;;;;;;4973053;28;20054;-81
2023/05/17 10:13:29;;;;;;;11.65;2.20;;;12.80;93.20;;;;;;4941736;28;20043;-82
2023/05/17 10:15:55;;;;;;;13.35;2.50;;;12.50;91.60;;;;;;4974130;28;20482;-83
2023/05/17 10:18:23;;;;;;;12.63;2.60;;;12.50;93.60;;;;;;4973971;28;20038;-82
2023/05/17 10:20:53;;;;;;;12.65;2.15;;;12.60;93.00;;;;;;4942018;28;20054;-82
2023/05/17 10:23:21;;;;;;;10.52;2.42;;;12.90;90.50;;;;;;4941820;28;20505;-83
2023/05/17 10:25:47;;;;;;;10.70;2.20;;;13.50;91.10;;;;;;4926310;28;20490;-83
2023/05/17 10:28:16;;;;;;;11.82;2.50;;;13.60;89.20;;;;;;4973657;28;20104;-83
2023/05/17 10:30:42;;;;;;;13.10;2.60;;;13.60;88.60;;;;;;4941319;28;20058;-83
2023/05/17 10:33:11;;;;;;;13.13;2.15;;;13.50;85.40;;;;;;4973444;28;20077;-82
2023/05/17 10:35:40;;;;;;;11.48;2.33;;;13.30;87.40;;;;;;4941718;28;20506;-82
2023/05/17 10:38:05;;;;;;;12.57;2.40;;;13.30;85.40;;;;;;4973320;28;20049;-83
2023/05/17 10:40:32;;;;;;;9.32;2.10;;;13.30;85.20;;;;;;4910045;28;20130;-82
2023/05/17 10:42:59;;;;;;;9.68;2.28;;;13.40;87.20;;;;;;4941632;28;20101;-82
2023/05/17 10:45:26;;;;;;;12.50;2.55;;;13.40;84.90;;;;;;4973586;28;20486;-82
2023/05/17 10:47:52;;;;;;;8.77;2.05;;;13.40;86.50;;;;;;4941564;28;20074;-82
2023/05/17 10:50:25;;;;;;;10.07;2.30;;;13.40;87.40;;;;;;4909987;28;20039;-83
2023/05/17 10:52:54;;;;;;;10.45;2.22;;;13.60;86.50;;;;;;4941443;28;20510;-82
2023/05/17 10:55:35;;;;;;;10.13;2.30;;;13.70;87.20;;;;;;4941513;28;20038;-82
2023/05/17 10:58:10;;;;;;;11.63;2.40;;;13.90;82.90;;;;;;4973212;28;20038;-83
2023/05/17 11:00:45;;;;;;;11.18;2.40;;;13.70;85.30;;;;;;4941589;28;20081;-82
2023/05/17 11:03:13;;;;;;;12.45;2.55;;;13.60;88.70;;;;;;4925803;28;20544;-83
2023/05/17 11:05:44;;;;;;;11.98;2.50;;;13.30;90.50;;;;;;4925523;28;20478;-82
2023/05/17 11:08:15;;;;;;;9.15;2.20;;;13.30;90.80;;;;;;4938033;29;20039;-81
2023/05/17 11:11:29;;;;;;;12.15;2.45;;;13.30;92.50;;;;;;4938057;29;20526;-84
2023/05/17 11:13:56;;;;;;;13.25;2.50;;;13.00;91.50;;;;;;4929841;29;20106;-82
2023/05/17 11:16:33;;;;;;;13.50;2.65;;;13.00;92.70;;;;;;4938479;29;20105;-83
2023/05/17 11:19:09;;;;;;;11.95;2.40;;;13.00;93.20;;;;;;4937979;29;20050;-83
2023/05/17 11:21:44;;;;;;;10.45;2.25;;;13.30;91.90;;;;;;4954193;28;20058;-82
2023/05/17 11:24:13;;;;;;;10.18;2.20;;;13.90;92.10;;;;;;4941870;29;20046;-83
2023/05/17 11:26:43;;;;;;;8.85;2.00;;;13.90;87.60;;;;;;4973317;28;20050;-83
2023/05/17 11:29:10;;;;;;;10.85;2.40;;;13.70;88.30;;;;;;4964358;29;20054;-83
2023/05/17 11:31:42;;;;;;;9.93;2.03;;;13.40;85.70;;;;;;4981499;28;20090;-83
2023/05/17 11:34:07;;;;;;;10.85;2.30;;;13.20;86.60;;;;;;4950441;28;20031;-83
2023/05/17 11:36:52;;;;;;;11.70;2.30;;;13.20;88.00;;;;;;4929604;28;20054;-81
2023/05/17 11:39:22;;;;;;;11.15;2.30;;;13.40;89.70;;;;;;4980154;28;20511;-83
2023/05/17 11:41:51;;;;;;;11.05;2.40;;;13.70;89.30;;;;;;4979306;28;20039;-84
2023/05/17 11:44:31;;;;;;;10.63;2.10;;;13.50;83.50;;;;;;4946222;28;20505;-83
2023/05/17 11:47:05;;;;;;;8.20;2.30;;;13.70;86.40;;;;;;4945181;28;20038;-84
2023/05/17 11:49:33;;;;;;;10.45;2.30;;;13.60;82.60;;;;;;4945103;28;20486;-84
2023/05/17 11:51:59;;;;;;;10.90;2.20;;;13.40;82.70;;;;;;4944849;28;20162;-83
2023/05/17 11:54:25;;;;;;;10.32;2.50;;;13.30;82.90;;;;;;4944652;28;20074;-84
2023/05/17 11:56:54;;;;;;;8.63;1.90;;;13.60;86.80;;;;;;4944888;28;20049;-83
2023/05/17 11:59:21;;;;;;;9.70;2.10;;;13.80;82.10;;;;;;4944891;28;20039;-84
2023/05/17 12:01:48;;;;;;;9.85;1.92;;;13.60;82.10;;;;;;4944868;28;20487;-83
2023/05/17 12:04:23;;;;;;;10.45;2.03;;;13.50;80.00;;;;;;4944937;28;20078;-83
2023/05/17 12:06:49;;;;;;;11.02;2.20;;;13.30;82.10;;;;;;4960270;28;20046;-83
2023/05/17 12:09:16;;;;;;;10.77;2.30;;;13.10;80.60;;;;;;4944156;28;20039;-84
2023/05/17 12:11:42;;;;;;;9.27;2.20;;;13.30;81.40;;;;;;4976083;28;20051;-84
2023/05/17 12:14:08;;;;;;;10.10;2.15;;;13.80;84.00;;;;;;4960246;28;20074;-83
2023/05/17 12:16:39;;;;;;;10.70;2.08;;;13.90;80.20;;;;;;4928246;28;20128;-83
2023/05/17 12:19:19;;;;;;;9.33;1.70;;;13.80;80.10;;;;;;4944144;28;20073;-83
2023/05/17 12:21:46;;;;;;;8.32;2.00;;;13.40;80.70;;;;;;4975993;28;20562;-83
2023/05/17 12:24:12;;;;;;;9.73;2.08;;;13.20;80.20;;;;;;4976026;28;20046;-83
2023/05/17 12:26:45;;;;;;;10.18;2.13;;;13.50;83.70;;;;;;4959649;28;20050;-83
2023/05/17 12:29:13;;;;;;;10.60;2.20;;;13.80;82.90;;;;;;4943621;28;20050;-84
2023/05/17 12:31:44;;;;;;;8.30;2.20;;;14.00;79.70;;;;;;4928852;28;20055;-83
2023/05/17 12:34:12;;;;;;;8.65;2.03;;;14.20;79.10;;;;;;4959089;28;20093;-84
2023/05/17 12:36:42;;;;;;;10.05;2.30;;;14.00;80.20;;;;;;4943765;28;20050;-83
2023/05/17 12:39:12;;;;;;;9.88;2.38;;;13.90;78.30;;;;;;4943979;28;20050;-82
2023/05/17 12:41:39;;;;;;;10.75;2.42;;;14.00;80.20;;;;;;4943560;28;20043;-83
2023/05/17 12:44:08;;;;;;;9.98;2.33;;;14.00;79.80;;;;;;4943695;28;20558;-84
2023/05/17 12:46:34;;;;;;;10.60;1.98;;;13.80;79.60;;;;;;4959053;28;20038;-84
2023/05/17 12:49:08;;;;;;;9.52;2.40;;;13.80;80.90;;;;;;4975593;28;20043;-84